MSC Davos — A8IG3 — position and weather

sailwx.info

Track history (hours):
 
Tides and Currents Weather Stations Pressure Air Temp Water Temp Dewpoint Dewpoint Depression Visibility Wind Speed Wind Dir Waves Ship Positions

MSC Davos

Last reported at 2015-May-21 06:00 UTC. Time now 2015-May-26 11:49 UTC.
Position N 14°00' W 092°18'.

Length 210.9 m; beam 32.3 m; draft 12 m.

Type: Cargo ship. MMSI: 636090972.

Wind from 030 at 6 knots

Waves 1.0 meters (3 feet), 10 second period

Barometer 1013.0 mb
Air temperature 28.7 ° C
Visibility: greater than 10.8 NM
Dewpoint 25.6 ° C
Water temperature 30.0 ° C

Date/timePositionNaut miles runAvg speedWind from/ knotsBaromVisibWave heightAir tempDewpointWater temp
2015-May-21 06:00N 14°00' W 092°18'18618.6 030 / 61013.010.8 1.028.725.630.0
2015-May-20 20:00N 14°48' W 095°24'24817.7 230 / 71012.010.8 0.531.023.230.0
2015-May-20 06:00N 16°18' W 099°24'34310.1 260 / 71013.510.8 1.029.525.530.0
2015-May-18 20:00N 18°48' W 104°48'46220.1 200 / 111014.010.8 1.028.523.729.0
2015-May-17 21:00N 23°18' W 111°30'   340 / 111018.010.8 1.020.515.820.0
2015-May-15 05:29N 32°29' W 117°35'1112.1
2015-May-15 04:33N 32°37' W 117°44'1111.1
2015-May-15 03:33N 32°47' W 117°49'1111.5
2015-May-15 02:33N 32°58' W 117°54'1211.5
2015-May-15 01:33N 33°08' W 118°00'1211.5
2015-May-15 00:33N 33°19' W 118°06'1211.6
2015-May-14 23:29N 33°30' W 118°11'1111.5
2015-May-14 22:33N 33°41' W 118°12'2 1.7
2015-May-14 21:32N 33°43' W 118°12'4 3.6
2015-May-14 20:33N 33°43' W 118°16'1 0.2
2015-May-14 17:11N 33°44' W 118°15'0 0.0
2015-May-13 23:29N 33°44' W 118°15'0 0.0
2015-May-13 22:29N 33°44' W 118°15'0 0.0
2015-May-13 21:23N 33°44' W 118°15'0 0.0
2015-May-13 20:20N 33°44' W 118°15'0 0.0
2015-May-13 19:29N 33°44' W 118°15'0 0.0
2015-May-13 18:29N 33°44' W 118°15'1 0.1
2015-May-13 12:28N 33°44' W 118°16'9 6.8
2015-May-13 11:09N 33°36' W 118°10'5 7.8
2015-May-13 10:32N 33°32' W 118°08'8 8.3
2015-May-13 09:33N 33°24' W 118°05'8 8.2
2015-May-13 08:33N 33°16' W 118°01'9 8.5
2015-May-13 07:33N 33°08' W 117°58'8 8.2
2015-May-13 06:33N 33°00' W 117°55'9 8.6
2015-May-13 05:33N 32°52' W 117°51'8 8.3
2015-May-13 04:33N 32°44' W 117°48'8 8.1
2015-May-13 03:33N 32°37' W 117°45'1211.6
2015-May-13 02:33N 32°26' W 117°40'1111.1
2015-May-13 01:33N 32°16' W 117°35'1110.9
2015-May-13 00:32N 32°05' W 117°31'1211.0
2015-May-12 23:25N 31°53' W 117°26'910.9
2015-May-12 22:33N 31°44' W 117°23'1312.7
2015-May-12 21:31N 31°32' W 117°18'917.9
2015-May-12 21:00N 31°24' W 117°12'41816.7 320 / 141015.010.8 2.517.511.617.0
2015-May-11 20:00N 25°12' W 113°36'   340 / 111012.510.8 1.520.316.820.0
Track history (hours):
 
Tides and Currents Weather Stations Pressure Air Temp Water Temp Dewpoint Dewpoint Depression Visibility Wind Speed Wind Dir Waves Ship Positions

MSC Davos

Last reported at 2015-May-21 06:00 UTC. Time now 2015-May-26 11:49 UTC.
Position N 14°00' W 092°18'.

Length 210.9 m; beam 32.3 m; draft 12 m.

Type: Cargo ship. MMSI: 636090972.

Wind from 030 at 6 knots

Waves 1.0 meters (3 feet), 10 second period

Barometer 1013.0 mb
Air temperature 28.7 ° C
Visibility: greater than 10.8 NM
Dewpoint 25.6 ° C
Water temperature 30.0 ° C

Date/timePositionNaut miles runAvg speedWind from/ knotsBaromVisibWave heightAir tempDewpointWater temp
2015-May-21 06:00N 14°00' W 092°18'18618.6 030 / 61013.010.8 1.028.725.630.0
2015-May-20 20:00N 14°48' W 095°24'24817.7 230 / 71012.010.8 0.531.023.230.0
2015-May-20 06:00N 16°18' W 099°24'34310.1 260 / 71013.510.8 1.029.525.530.0
2015-May-18 20:00N 18°48' W 104°48'46220.1 200 / 111014.010.8 1.028.523.729.0
2015-May-17 21:00N 23°18' W 111°30'   340 / 111018.010.8 1.020.515.820.0
2015-May-15 05:29N 32°29' W 117°35'1112.1
2015-May-15 04:33N 32°37' W 117°44'1111.1
2015-May-15 03:33N 32°47' W 117°49'1111.5
2015-May-15 02:33N 32°58' W 117°54'1211.5
2015-May-15 01:33N 33°08' W 118°00'1211.5
2015-May-15 00:33N 33°19' W 118°06'1211.6
2015-May-14 23:29N 33°30' W 118°11'1111.5
2015-May-14 22:33N 33°41' W 118°12'2 1.7
2015-May-14 21:32N 33°43' W 118°12'4 3.6
2015-May-14 20:33N 33°43' W 118°16'1 0.2
2015-May-14 17:11N 33°44' W 118°15'0 0.0
2015-May-13 23:29N 33°44' W 118°15'0 0.0
2015-May-13 22:29N 33°44' W 118°15'0 0.0
2015-May-13 21:23N 33°44' W 118°15'0 0.0
2015-May-13 20:20N 33°44' W 118°15'0 0.0
2015-May-13 19:29N 33°44' W 118°15'0 0.0
2015-May-13 18:29N 33°44' W 118°15'1 0.1
2015-May-13 12:28N 33°44' W 118°16'9 6.8
2015-May-13 11:09N 33°36' W 118°10'5 7.8
2015-May-13 10:32N 33°32' W 118°08'8 8.3
2015-May-13 09:33N 33°24' W 118°05'8 8.2
2015-May-13 08:33N 33°16' W 118°01'9 8.5
2015-May-13 07:33N 33°08' W 117°58'8 8.2
2015-May-13 06:33N 33°00' W 117°55'9 8.6
2015-May-13 05:33N 32°52' W 117°51'8 8.3
2015-May-13 04:33N 32°44' W 117°48'8 8.1
2015-May-13 03:33N 32°37' W 117°45'1211.6
2015-May-13 02:33N 32°26' W 117°40'1111.1
2015-May-13 01:33N 32°16' W 117°35'1110.9
2015-May-13 00:32N 32°05' W 117°31'1211.0
2015-May-12 23:25N 31°53' W 117°26'910.9
2015-May-12 22:33N 31°44' W 117°23'1312.7
2015-May-12 21:31N 31°32' W 117°18'917.9
2015-May-12 21:00N 31°24' W 117°12'41816.7 320 / 141015.010.8 2.517.511.617.0
2015-May-11 20:00N 25°12' W 113°36'   340 / 111012.510.8 1.520.316.820.0

Dump ship's entire track history